シカゴ/オヘア の空港の天気 - METARとTAF

シカゴ・オヘア国際空港 ( KORD / ORD ) - アメリカ イリノイ州シカゴ
飛行場実況気象(Metar)
観測時間05/26 16:51 CDT (05/26 21:51 UTC)
風向・風速南東 4m/s
視程10km以上
天気現象
全天の4割程度の雲 雲底高度 1680m
全天の4割程度の雲 雲底高度 3050m
全天の8割程度の雲 雲底高度 4570m
全天の8割程度の雲 雲底高度 7620m
気温28.9℃
湿度55%
気圧1012.2hPa
METARKORD 262151Z 13007KT 10SM SCT055 SCT100 BKN150 BKN250 29/19 A2991 RMK AO2 LTG DSNT N AND SE RAB09E23 SLP122 CB DSNT SE AND DSNT S MOV N T02890189 PNO $
過去の天気等 Google飛行場航空写真 Wunderground天気予報

過去48時間のMETAR

飛行場予報(TAF)
発表時間: 5/26 17:03 CDT (5/26 22:03 UTC)
予報対象時間: 26日17時 CDT ~ 27日19時 CDT
風向・風速南東 6m/s 瞬間風速 10m/s
視程10km以上
天気現象周辺で雷
全天の4割程度の積乱雲 雲底高度 1520m
全天の4割程度の雲 雲底高度 4570m
26日18時 CDT から
風向・風速南東 6m/s
視程10km以上
全天の4割程度の雲 雲底高度 1520m
全天の4割程度の雲 雲底高度 4570m
26日20時 CDT から
風向・風速南 4m/s
視程10km以上
少しの雲 雲底高度 1520m
全天の8割程度の雲 雲底高度 4570m
27日2時 CDT から
風向・風速南 3m/s
視程10km以上
全天の4割程度の雲 雲底高度 1520m
全天の8割程度の雲 雲底高度 4570m
27日8時 CDT から
風向・風速南 5m/s
視程10km以上
全天の4割程度の雲 雲底高度 1220m
全天の4割程度の雲 雲底高度 7620m
27日17時 CDT から
風向・風速南南東 4m/s
視程10km以上
全天の8割程度の雲 雲底高度 1220m
全天を覆う雲 雲底高度 7620m
27日17時 CDT から 確率 30% で
視程6440m
天気現象雷雨
全天の8割程度の積乱雲 雲底高度 1070m
KORD 262203Z 2622/2724 14012G20KT P6SM VCTS SCT050CB SCT150
FM262300 14012KT P6SM SCT050 SCT150
FM270100 17008KT P6SM FEW050 BKN150
FM270700 18005KT P6SM SCT050 BKN150
FM271300 19010KT P6SM SCT040 SCT250
FM272200 16008KT P6SM BKN040 OVC250
PROB30 2722/2724 4SM TSRA BKN035CB